aviador You're here:

KWRI Decoded Metar

WRIGHTSTOWN in NJ, USA
Report Time2018-02-17 23:20:00
UTC Time2018-02-17 23:39:36
Flight Rules mvfr MVFR
Wind170° at 03 kt
W.Decomp.*RWY 18: 3.0 kt HW 0.1 kt RCW
RWY 24: 1.6 kt HW 2.5 kt LCW
W.Rank170° ranks 25
Current wind is below 170° avg. (6.0)
Visibility9999 m
Phenomena:N/A
Clouds:Overcast 017 Hf
Expected CloudBase > 1,200 ft AGL from Temp-Dew spread
Ceiling1,700 ft
Temp04°C (ISA -11)
Dew Point01°C (81% RH)
AAT1.1°C
QNH1022 hPa
Density Alt-1,381 ft
Elevation135 ft
Report Wrong Elevation
Raw Report
SPECI KWRI 172320Z 17003KT 10SM -RASN OVC017 04/01 A3018 RMK AO2A ALSTG
ESTMD $=

Extra information for KWRI:More info

Metar Taf Metar & Taf Last 4 Metars F.Rules Stats Wind Profile Meteogram Temp Stats Airport Information Weather charts Add Link Nearby VenuesMetar ALERT Operation Metar Decoded Social comments

AIRNAV info for KWRI